首页
METAR-TAF:

METAR-TAF

机场 :

New Richmond Regional Airport

New Richmond, 威斯康辛州, 美国

纬度: 45-08-54N, 经度: 092-32-17W, 海拔: 304米

当前天气观测

该预报发布于26分钟前的22:15 UTC
风速4节,风向北转西北
温度 25°C
湿度 36%
气压 1018 hPa
能見度: 16.1公里
天空无云

METAR: KRNH 142215Z AUTO 34004KT 10SM CLR 25/09 A3006 RMK AO2 T02480090

时间: 17:41 (22:41 UTC)

预报

该预报发布于5小时和7分钟前的17:34 UTC
预报有效从14日的 18点(UTC)到 15日的 18点(UTC)
风速4节,风向西北
能見度: 10公里
少量云层高于5000英尺
从 14日的 2300点(UTC)
风速5节,风向南转西南
能見度: 10公里
少量云层高于25000英尺
从 15日的 0100点(UTC)
风速5节,风向东南
能見度: 10公里
散云层高于25000英尺
从 15日的 1500点(UTC)
风速14节,风向南转南东,有时为19节阵风
能見度: 10公里
阴天层高于10000英尺

TAF: KRNH 141734Z 1418/1518 32004KT P6SM FEW050 FM142300 20005KT P6SM FEW250 FM150100 14005KT P6SM SCT250 FM151500 16014G19KT P6SM OVC100

超过4000个机场的气象观测和天气预报(METAR&TAF报告)。

可查询的气象台以黄色和红色小点在地图上表示。

将鼠标移到小点上方,可查看气象台名称。

然后点击查看天气观测和预报。

如需切换地图:点击带黑十字的绿色按钮放大地图;点击带横线的绿色按钮缩小地图;或者点击绿色箭头查看邻近地区的地图。


METAR-TAF: